地図

経路データ

SID SEASON NUMBER BASIN SUBBASIN NAME ISO_TIME NATURE LAT LON WMO_WIND WMO_PRES WMO_AGENCY TRACK_TYPE DIST2LAND LANDFALL IFLAG USA_AGENCY USA_ATCF_ID USA_LAT USA_LON USA_RECORD USA_STATUS USA_WIND USA_PRES USA_SSHS USA_R34_NE USA_R34_SE USA_R34_SW USA_R34_NW USA_R50_NE USA_R50_SE USA_R50_SW USA_R50_NW USA_R64_NE USA_R64_SE USA_R64_SW USA_R64_NW USA_POCI USA_ROCI USA_RMW USA_EYE TOKYO_LAT TOKYO_LON TOKYO_GRADE TOKYO_WIND TOKYO_PRES TOKYO_R50_DIR TOKYO_R50_LONG TOKYO_R50_SHORT TOKYO_R30_DIR TOKYO_R30_LONG TOKYO_R30_SHORT TOKYO_LAND CMA_LAT CMA_LON CMA_CAT CMA_WIND CMA_PRES HKO_LAT HKO_LON HKO_CAT HKO_WIND HKO_PRES NEWDELHI_LAT NEWDELHI_LON NEWDELHI_GRADE NEWDELHI_WIND NEWDELHI_PRES NEWDELHI_CI NEWDELHI_DP NEWDELHI_POCI REUNION_LAT REUNION_LON REUNION_TYPE REUNION_WIND REUNION_PRES REUNION_TNUM REUNION_CI REUNION_RMW REUNION_R34_NE REUNION_R34_SE REUNION_R34_SW REUNION_R34_NW REUNION_R50_NE REUNION_R50_SE REUNION_R50_SW REUNION_R50_NW REUNION_R64_NE REUNION_R64_SE REUNION_R64_SW REUNION_R64_NW BOM_LAT BOM_LON BOM_TYPE BOM_WIND BOM_PRES BOM_TNUM BOM_CI BOM_RMW BOM_R34_NE BOM_R34_SE BOM_R34_SW BOM_R34_NW BOM_R50_NE BOM_R50_SE BOM_R50_SW BOM_R50_NW BOM_R64_NE BOM_R64_SE BOM_R64_SW BOM_R64_NW BOM_ROCI BOM_POCI BOM_EYE BOM_POS_METHOD BOM_PRES_METHOD NADI_LAT NADI_LON NADI_CAT NADI_WIND NADI_PRES WELLINGTON_LAT WELLINGTON_LON WELLINGTON_WIND WELLINGTON_PRES DS824_LAT DS824_LON DS824_STAGE DS824_WIND DS824_PRES TD9636_LAT TD9636_LON TD9636_STAGE TD9636_WIND TD9636_PRES TD9635_LAT TD9635_LON TD9635_WIND TD9635_PRES TD9635_ROCI NEUMANN_LAT NEUMANN_LON NEUMANN_CLASS NEUMANN_WIND NEUMANN_PRES MLC_LAT MLC_LON MLC_CLASS MLC_WIND MLC_PRES USA_GUST BOM_GUST BOM_GUST_PER REUNION_GUST REUNION_GUST_PER USA_SEAHGT USA_SEARAD_NE USA_SEARAD_SE USA_SEARAD_SW USA_SEARAD_NW STORM_SPEED STORM_DIR
1881021S14057 1881 3 SI MM NOT_NAMED 1881-01-21 06:00:00 NR -14.1500 57.2500 reunion main 671 649 _____O____O___ -1 -13.7000 57.4000 99 9.90000 -14.6000 57.1000 7 3 208
1881021S14057 1881 3 SI MM NOT_NAMED 1881-01-21 09:00:00 NR -14.2654 57.1994 main 649 638 _____P____P___ -1 -13.8027 57.3425 99 -14.7281 57.0563 7 3 203
1881021S14057 1881 3 SI MM NOT_NAMED 1881-01-21 12:00:00 NR -14.3806 57.1472 main 639 628 _____P____P___ -1 -13.9063 57.2844 99 -14.8550 57.0100 7 3 205
1881021S14057 1881 3 SI MM NOT_NAMED 1881-01-21 15:00:00 NR -14.4956 57.0921 main 628 616 _____P____P___ -1 -14.0117 57.2254 99 -14.9794 56.9588 7 3 207
1881021S14057 1881 3 SI MM NOT_NAMED 1881-01-21 18:00:00 NR -14.6100 57.0325 main 617 606 _____P____O___ -1 -14.1200 57.1650 99 -15.1000 56.9000 7 3 207
1881021S14057 1881 3 SI MM NOT_NAMED 1881-01-21 21:00:00 NR -14.7245 56.9674 main 606 595 _____P____P___ -1 -14.2320 57.1027 99 -15.2169 56.8322 7 3 209
1881021S14057 1881 3 SI MM NOT_NAMED 1881-01-22 00:00:00 NR -14.8419 56.8978 main 596 575 _____P____P___ -1 -14.3487 57.0381 99 -15.3350 56.7575 7 3 209
1881021S14057 1881 3 SI MM NOT_NAMED 1881-01-22 03:00:00 NR -14.9659 56.8249 main 575 564 _____P____P___ -1 -14.4711 56.9707 99 -15.4606 56.6790 7 3 209
1881021S14057 1881 3 SI MM NOT_NAMED 1881-01-22 06:00:00 NR -15.1000 56.7500 reunion main 564 554 _____O____O___ -1 -14.6000 56.9000 99 9.90000 -15.6000 56.6000 7 3 208
1881021S14057 1881 3 SI MM NOT_NAMED 1881-01-22 09:00:00 NR -15.2504 56.6714 main 543 534 _____P____P___ -1 -14.7361 56.8259 99 -15.7647 56.5169 7 3 207
1881021S14057 1881 3 SI MM NOT_NAMED 1881-01-22 12:00:00 NR -15.4105 56.5921 main 534 514 _____P____P___ -1 -14.8785 56.7491 99 -15.9425 56.4351 7 4 204
1881021S14057 1881 3 SI MM NOT_NAMED 1881-01-22 15:00:00 NR -15.5750 56.5158 main 514 503 _____P____P___ -1 -15.0260 56.6710 99 -16.1241 56.3607 7 4 204
1881021S14057 1881 3 SI MM NOT_NAMED 1881-01-22 18:00:00 NR -15.7388 56.4463 main 505 484 _____P____O___ -1 -15.1776 56.5926 99 -16.3000 56.3000 7 3 200
1881021S14057 1881 3 SI MM NOT_NAMED 1881-01-22 21:00:00 NR -15.8945 56.3899 main 484 473 _____P____P___ -1 -15.3319 56.5151 99 -16.4572 56.2646 7 3 199
1881021S14057 1881 3 SI MM NOT_NAMED 1881-01-23 00:00:00 NR -16.0477 56.3411 main 475 454 _____P____P___ -1 -15.4879 56.4398 99 -16.6075 56.2424 7 3 196
1881021S14057 1881 3 SI MM NOT_NAMED 1881-01-23 03:00:00 NR -16.1992 56.2958 main 454 443 _____P____P___ -1 -15.6443 56.3676 99 -16.7540 56.2240 7 3 196
1881021S14057 1881 3 SI MM NOT_NAMED 1881-01-23 06:00:00 NR -16.3500 56.2500 reunion main 443 425 _____O____O___ -1 -15.8000 56.3000 99 9.90000 -16.9000 56.2000 7 3 196
1881021S14057 1881 3 SI MM NOT_NAMED 1881-01-23 09:00:00 NR -16.4979 56.1998 main 425 414 _____P____P___ -1 -15.9500 56.2425 99 -17.0459 56.1572 7 3 198
1881021S14057 1881 3 SI MM NOT_NAMED 1881-01-23 12:00:00 NR -16.6462 56.1485 main 418 397 _____P____P___ -1 -16.0999 56.1894 99 -17.1925 56.1075 7 3 198
1881021S14057 1881 3 SI MM NOT_NAMED 1881-01-23 15:00:00 NR -16.7964 56.0969 main 397 387 _____P____P___ -1 -16.2499 56.1397 99 -17.3428 56.0541 7 3 198
1881021S14057 1881 3 SI MM NOT_NAMED 1881-01-23 18:00:00 NR -16.9500 56.0461 main 391 370 _____P____O___ -1 -16.3999 56.0922 99 -17.5000 56.0000 7 3 196
1881021S14057 1881 3 SI MM NOT_NAMED 1881-01-23 21:00:00 NR -17.1007 56.0018 main 370 360 _____P____P___ -1 -16.5499 56.0456 99 -17.6515 55.9580 7 3 196
1881021S14057 1881 3 SI MM NOT_NAMED 1881-01-24 00:00:00 NR -17.2562 55.9568 main 350 345 _____P____P___ -1 -16.6999 55.9988 99 -17.8125 55.9148 7 3 196
1881021S14057 1881 3 SI MM NOT_NAMED 1881-01-24 03:00:00 NR -17.4211 55.9074 main 345 326 _____P____P___ -1 -16.8500 55.9507 99 -17.9922 55.8642 7 4 197
1881021S14057 1881 3 SI MM NOT_NAMED 1881-01-24 06:00:00 NR -17.6000 55.8500 reunion main 326 313 _____O____O___ -1 -17.0000 55.9000 99 9.90000 -18.2000 55.8000 7 4 200
1881021S14057 1881 3 SI MM NOT_NAMED 1881-01-24 09:00:00 NR -17.7826 55.7771 main 313 301 _____P____P___ -1 -17.1270 55.8439 99 -18.4382 55.7104 7 4 201
1881021S14057 1881 3 SI MM NOT_NAMED 1881-01-24 12:00:00 NR -17.9782 55.6967 main 301 291 _____P____P___ -1 -17.2513 55.7858 99 -18.7051 55.6076 7 4 201
1881021S14057 1881 3 SI MM NOT_NAMED 1881-01-24 15:00:00 NR -18.1859 55.6135 main 291 283 _____P____P___ -1 -17.3774 55.7260 99 -18.9944 55.5010 7 5 200
1881021S14057 1881 3 SI MM NOT_NAMED 1881-01-24 18:00:00 NR -18.4050 55.5322 main 283 268 _____P____O___ -1 -17.5100 55.6643 99 -19.3000 55.4000 7 5 198
1881021S14057 1881 3 SI MM NOT_NAMED 1881-01-24 21:00:00 NR -18.6302 55.4553 main 268 234 _____P____P___ -1 -17.6539 55.6009 99 -19.6066 55.3097 7 5 197
1881021S14057 1881 3 SI MM NOT_NAMED 1881-01-25 00:00:00 NR -18.8706 55.3816 main 234 212 _____P____P___ -1 -17.8138 55.5357 99 -19.9275 55.2275 7 5 196
1881021S14057 1881 3 SI MM NOT_NAMED 1881-01-25 03:00:00 NR -19.1270 55.3127 main 212 178 _____P____P___ -1 -17.9942 55.4687 99 -20.2597 55.1566 7 5 193
1881021S14057 1881 3 SI MM NOT_NAMED 1881-01-25 06:00:00 NR -19.4000 55.2500 reunion main 178 145 _____O____O___ -1 -18.2000 55.4000 99 9.90000 -20.6000 55.1000 7 6 192
1881021S14057 1881 3 SI MM NOT_NAMED 1881-01-25 09:00:00 NR -19.6828 55.1884 main 145 113 _____P____P___ -1 -18.4309 55.3204 99 -20.9347 55.0564 7 6 191
1881021S14057 1881 3 SI MM NOT_NAMED 1881-01-25 12:00:00 NR -19.9815 55.1324 main 113 81 _____P____P___ -1 -18.6855 55.2374 99 -21.2775 55.0274 7 6 189
1881021S14057 1881 3 SI MM NOT_NAMED 1881-01-25 15:00:00 NR -20.2967 55.0816 main 81 54 _____P____P___ -1 -18.9618 55.1535 99 -21.6316 55.0096 7 7 188
1881021S14057 1881 3 SI MM NOT_NAMED 1881-01-25 18:00:00 NR -20.6289 55.0354 main 54 23 _____P____O___ -1 -19.2579 55.0709 99 -22.0000 55.0000 7 7 187
1881021S14057 1881 3 SI MM NOT_NAMED 1881-01-25 21:00:00 NR -20.9766 54.9863 main 23 20 _____P____P___ -1 -19.5716 54.9918 99 -22.3816 54.9808 7 7 187
1881021S14057 1881 3 SI MM NOT_NAMED 1881-01-26 00:00:00 NR -21.3393 54.9445 main 38 38 _____P____P___ -1 -19.9012 54.9188 99 -22.7775 54.9703 7 7 185
1881021S14057 1881 3 SI MM NOT_NAMED 1881-01-26 03:00:00 NR -21.7147 54.9143 main 60 60 _____P____P___ -1 -20.2446 54.8540 99 -23.1847 54.9747 7 8 183
1881021S14057 1881 3 SI MM NOT_NAMED 1881-01-26 06:00:00 NR -22.1000 54.9000 reunion main 98 98 _____O____O___ -1 -20.6000 54.8000 99 9.90000 -23.6000 55.0000 7 8 182
1881021S14057 1881 3 SI MM NOT_NAMED 1881-01-26 09:00:00 NR -22.4835 54.8935 main 140 140 _____P____P___ -1 -20.9492 54.7456 99 -24.0178 55.0414 7 8 0
1881021S14057 1881 3 SI MM NOT_NAMED 1881-01-26 12:00:00 NR -22.8774 54.9024 main 182 182 _____P____P___ -1 -21.3124 54.6995 99 -24.4424 55.1052 7 8 177
1881021S14057 1881 3 SI MM NOT_NAMED 1881-01-26 15:00:00 NR -23.2796 54.9275 main 224 224 _____P____P___ -1 -21.6882 54.6635 99 -24.8709 55.1915 7 8 176
1881021S14057 1881 3 SI MM NOT_NAMED 1881-01-26 18:00:00 NR -23.6875 54.9697 main 264 264 _____P____O___ -1 -22.0749 54.6394 99 -25.3000 55.3000 7 8 173
1881021S14057 1881 3 SI MM NOT_NAMED 1881-01-26 21:00:00 NR -24.0992 55.0294 main 308 308 _____P____P___ -1 -22.4710 54.6291 99 -25.7273 55.4297 7 6 175
1881021S14057 1881 3 SI MM NOT_NAMED 1881-01-27 00:00:00 NR -24.2797 55.0382 main 329 329 _____P____P___ -1 -22.8749 54.6345 99 -26.1527 55.5764 7 3 0
1881021S14057 1881 3 SI MM NOT_NAMED 1881-01-27 03:00:00 NR -24.3823 55.0166 main 340 340 _____P____P___ -1 -23.2851 54.6575 99 -26.5767 55.7349 7 1 227
1881021S14057 1881 3 SI MM NOT_NAMED 1881-01-27 06:00:00 NR -24.3600 54.9400 reunion main 342 321 _____O____O___ -1 -23.7000 54.7000 99 9.90000 -27.0000 55.9000 7 3 315
1881021S14057 1881 3 SI MM NOT_NAMED 1881-01-27 09:00:00 NR -24.1608 54.7700 main 323 323 _____P________ -1 -24.1608 54.7700 99 7 3 194
1881021S14057 1881 3 SI MM NOT_NAMED 1881-01-27 12:00:00 NR -24.6341 54.8620 main 364 364 _____P________ -1 -24.6341 54.8620 99 7 10 169
1881021S14057 1881 3 SI MM NOT_NAMED 1881-01-27 15:00:00 NR -25.1085 54.9712 main 418 418 _____P________ -1 -25.1085 54.9712 99 7 10 167
1881021S14057 1881 3 SI MM NOT_NAMED 1881-01-27 18:00:00 NR -25.5727 55.0928 main 472 472 _____P________ -1 -25.5727 55.0928 99 9 166
1881021S14057 1881 3 SI MM NOT_NAMED 1881-01-27 21:00:00 NR -26.0153 55.2217 main 515 515 _____P________ -1 -26.0153 55.2217 99 9 165
1881021S14057 1881 3 SI MM NOT_NAMED 1881-01-28 00:00:00 NR -26.4249 55.3527 main 559 559 _____P________ -1 -26.4249 55.3527 99 8 163
1881021S14057 1881 3 SI MM NOT_NAMED 1881-01-28 03:00:00 NR -26.7903 55.4806 main 603 603 _____P________ -1 -26.7903 55.4806 99 7 162
1881021S14057 1881 3 SI MM NOT_NAMED 1881-01-28 06:00:00 NR -27.1000 55.6000 reunion main 636 636 _____O________ -1 -27.1000 55.6000 99 9.90000 6 160
1881021S14057 1881 3 SI MM NOT_NAMED 1881-01-28 09:00:00 NR -27.3461 55.7065 main 659 659 _____P________ -1 -27.3461 55.7065 99 5 158
1881021S14057 1881 3 SI MM NOT_NAMED 1881-01-28 12:00:00 NR -27.5338 55.8006 main 681 681 _____P________ -1 -27.5338 55.8006 99 4 154
1881021S14057 1881 3 SI MM NOT_NAMED 1881-01-28 15:00:00 NR -27.6713 55.8839 main 704 704 _____P________ -1 -27.6713 55.8839 99 3 149
1881021S14057 1881 3 SI MM NOT_NAMED 1881-01-28 18:00:00 NR -27.7671 55.9582 main 716 716 _____P________ -1 -27.7671 55.9582 99 2 142
1881021S14057 1881 3 SI MM NOT_NAMED 1881-01-28 21:00:00 NR -27.8295 56.0251 main 716 716 _____P________ -1 -27.8295 56.0251 99 2 132
1881021S14057 1881 3 SI MM NOT_NAMED 1881-01-29 00:00:00 NR -27.8669 56.0865 main 728 728 _____P________ -1 -27.8669 56.0865 99 1 119
1881021S14057 1881 3 SI MM NOT_NAMED 1881-01-29 03:00:00 NR -27.8876 56.1442 main 728 728 _____P________ -1 -27.8876 56.1442 99 1 108
1881021S14057 1881 3 SI MM NOT_NAMED 1881-01-29 06:00:00 NR -27.9000 56.2000 reunion main 728 _____O________ -1 -27.9000 56.2000 99 9.90000 1 103

IBTrACS Databaseについて

本データベースは、米国NOAAが公開する1842年以降の世界の熱帯低気圧のベストトラックデータアーカイブInternational Best Track Archive for Climate Stewardship (IBTrACS)を、ウェブで閲覧しやすい形式に変換したものです。

最終更新日:2021-10-21